createdAt,value
2023-04-29T00:01:26.051Z,54.38
2023-04-29T00:03:53.630Z,54.89
2023-04-29T00:06:21.530Z,54.67
2023-04-29T00:08:48.498Z,54.65
2023-04-29T00:11:15.540Z,54.81
2023-04-29T00:13:42.884Z,54.36
2023-04-29T00:16:10.510Z,54.70
2023-04-29T00:18:37.964Z,54.58
2023-04-29T00:21:08.127Z,54.54
2023-04-29T00:23:35.291Z,55.03
2023-04-29T00:26:02.406Z,54.25
2023-04-29T00:28:29.430Z,54.82
2023-04-29T00:30:57.173Z,55.01
2023-04-29T00:33:24.318Z,54.69
2023-04-29T00:35:51.681Z,54.54
2023-04-29T00:38:18.863Z,54.47
2023-04-29T00:40:46.215Z,54.94
2023-04-29T00:43:13.690Z,54.54
2023-04-29T00:45:40.744Z,55.04
2023-04-29T00:48:07.968Z,54.85
2023-04-29T00:50:36.631Z,54.64
2023-04-29T00:53:03.984Z,54.93
2023-04-29T00:55:33.338Z,54.97
2023-04-29T00:58:02.536Z,54.51
2023-04-29T01:00:31.169Z,54.58
2023-04-29T01:02:59.746Z,54.70
2023-04-29T01:05:27.904Z,54.77
2023-04-29T01:08:22.560Z,55.07
2023-04-29T01:11:11.698Z,54.72
2023-04-29T01:13:51.748Z,54.55
2023-04-29T01:16:25.968Z,54.87
2023-04-29T01:18:58.578Z,54.90
2023-04-29T01:21:32.026Z,54.86
2023-04-29T01:23:59.061Z,54.99
2023-04-29T01:26:33.286Z,54.71
2023-04-29T01:29:54.025Z,54.73
2023-04-29T01:32:51.135Z,55.14
2023-04-29T01:36:02.330Z,55.15
2023-04-29T01:39:02.837Z,54.82
2023-04-29T01:42:02.145Z,55.15
2023-04-29T01:44:33.050Z,54.80
2023-04-29T01:47:01.690Z,54.74
2023-04-29T01:49:37.493Z,54.74
2023-04-29T01:52:05.614Z,55.06
2023-04-29T01:54:36.330Z,54.83
2023-04-29T01:57:04.468Z,54.83
2023-04-29T01:59:52.492Z,54.90
2023-04-29T02:02:38.685Z,54.79
2023-04-29T02:05:15.813Z,55.10
2023-04-29T02:07:50.267Z,54.83
2023-04-29T02:10:17.700Z,54.81
2023-04-29T02:12:47.156Z,54.83
2023-04-29T02:15:15.130Z,54.82
2023-04-29T02:17:42.268Z,54.83
2023-04-29T02:20:10.413Z,54.84
2023-04-29T02:22:37.358Z,55.00
2023-04-29T02:25:04.892Z,54.85
2023-04-29T02:27:31.960Z,54.91
2023-04-29T02:29:59.036Z,55.12
2023-04-29T02:32:26.343Z,54.91
2023-04-29T02:34:53.543Z,54.87
2023-04-29T02:37:21.894Z,55.38
2023-04-29T02:39:48.988Z,54.96
2023-04-29T02:42:15.883Z,54.99
2023-04-29T02:44:42.968Z,55.32
2023-04-29T02:47:10.072Z,54.88
2023-04-29T02:49:37.066Z,54.89
2023-04-29T02:52:04.753Z,55.36
2023-04-29T02:54:32.159Z,55.02
2023-04-29T02:56:59.402Z,54.95
2023-04-29T02:59:26.647Z,55.32
2023-04-29T03:01:54.601Z,54.86
2023-04-29T03:04:21.638Z,55.12
2023-04-29T03:06:49.395Z,55.29
2023-04-29T03:09:17.360Z,54.86
2023-04-29T03:11:46.649Z,55.23
2023-04-29T03:14:13.703Z,55.32
2023-04-29T03:16:40.846Z,55.40
2023-04-29T03:19:07.782Z,55.32
2023-04-29T03:21:34.746Z,55.05
2023-04-29T03:24:01.789Z,55.27
2023-04-29T03:26:33.774Z,55.39
2023-04-29T03:29:00.809Z,55.24
2023-04-29T03:31:27.819Z,55.30
2023-04-29T03:33:54.822Z,55.23
2023-04-29T03:36:23.183Z,54.97
2023-04-29T03:39:06.436Z,55.41
2023-04-29T03:41:33.808Z,55.22
2023-04-29T03:44:01.008Z,55.07
2023-04-29T03:46:29.718Z,55.23
2023-04-29T03:48:57.022Z,55.42
2023-04-29T03:51:25.338Z,55.46
2023-04-29T03:53:57.900Z,55.37
2023-04-29T03:56:26.180Z,55.38
2023-04-29T03:58:53.967Z,55.56
2023-04-29T04:01:23.333Z,55.49
2023-04-29T04:03:50.845Z,55.12
2023-04-29T04:06:18.033Z,55.21
2023-04-29T04:08:45.926Z,55.12
2023-04-29T04:11:19.571Z,55.15
2023-04-29T04:13:52.038Z,55.41
2023-04-29T04:16:20.136Z,55.54
2023-04-29T04:18:47.062Z,55.47
2023-04-29T04:21:14.638Z,55.02
2023-04-29T04:23:46.045Z,55.12
2023-04-29T04:26:18.561Z,55.29
2023-04-29T04:29:02.507Z,55.50
2023-04-29T04:31:39.025Z,55.63
2023-04-29T04:34:07.804Z,55.53
2023-04-29T04:36:35.494Z,55.24
2023-04-29T04:39:02.660Z,55.64
2023-04-29T04:41:31.995Z,55.30
2023-04-29T04:43:59.648Z,55.61
2023-04-29T04:46:46.858Z,55.56
2023-04-29T04:49:28.089Z,55.45
2023-04-29T04:51:55.572Z,55.71
2023-04-29T04:54:22.775Z,55.34
2023-04-29T04:56:54.138Z,55.41
2023-04-29T04:59:21.242Z,55.38
2023-04-29T05:01:48.309Z,55.71
2023-04-29T05:04:16.398Z,55.42
2023-04-29T05:06:43.660Z,55.16
2023-04-29T05:09:10.874Z,55.61
2023-04-29T05:11:38.471Z,55.75
2023-04-29T05:14:10.137Z,55.52
2023-04-29T05:16:37.319Z,55.54
2023-04-29T05:19:04.235Z,55.54
2023-04-29T05:21:35.697Z,55.46
2023-04-29T05:24:02.812Z,55.83
2023-04-29T05:26:29.952Z,55.42
2023-04-29T05:29:01.190Z,55.83
2023-04-29T05:31:31.293Z,55.36
2023-04-29T05:34:03.800Z,55.39
2023-04-29T05:36:31.834Z,55.71
2023-04-29T05:38:59.089Z,55.48
2023-04-29T05:41:26.796Z,55.94
2023-04-29T05:44:02.686Z,55.61
2023-04-29T05:46:32.009Z,55.86
2023-04-29T05:48:59.440Z,55.80
2023-04-29T05:51:28.141Z,55.66
2023-04-29T05:53:55.390Z,55.94
2023-04-29T05:56:23.386Z,55.87
2023-04-29T05:58:50.509Z,55.81
2023-04-29T06:01:18.308Z,55.74
2023-04-29T06:03:46.410Z,55.82
2023-04-29T06:06:36.822Z,55.71
2023-04-29T06:09:26.475Z,56.10
2023-04-29T06:11:56.093Z,56.13
2023-04-29T06:14:23.466Z,55.68
2023-04-29T06:16:51.041Z,55.36
2023-04-29T06:19:18.071Z,55.70
2023-04-29T06:21:45.218Z,55.68
2023-04-29T06:24:12.290Z,56.26
2023-04-29T06:26:39.716Z,55.98
2023-04-29T06:29:06.968Z,56.19
2023-04-29T06:31:36.201Z,56.20
2023-04-29T06:34:04.725Z,56.18
2023-04-29T06:36:33.279Z,56.44
2023-04-29T06:39:18.577Z,56.97
2023-04-29T06:42:11.415Z,56.84
2023-04-29T06:44:52.113Z,56.59
2023-04-29T06:47:45.238Z,56.86
2023-04-29T06:50:13.965Z,57.28
2023-04-29T06:52:41.142Z,56.96
2023-04-29T06:55:11.279Z,56.93
2023-04-29T06:57:39.111Z,57.73
2023-04-29T07:00:07.448Z,57.35
2023-04-29T07:02:37.204Z,57.78
2023-04-29T07:05:08.497Z,57.44
2023-04-29T07:07:36.517Z,57.76
2023-04-29T07:10:03.865Z,57.35
2023-04-29T07:12:31.062Z,57.43
2023-04-29T07:14:59.156Z,57.38
2023-04-29T07:17:26.311Z,57.57
2023-04-29T07:19:53.841Z,57.33
2023-04-29T07:22:21.219Z,57.37
2023-04-29T07:24:48.126Z,57.95
2023-04-29T07:27:15.619Z,57.56
2023-04-29T07:29:42.543Z,57.97
2023-04-29T07:32:09.503Z,57.60
2023-04-29T07:34:38.154Z,57.63
2023-04-29T07:37:05.089Z,57.81
2023-04-29T07:39:32.220Z,58.08
2023-04-29T07:42:00.196Z,57.56
2023-04-29T07:44:28.594Z,57.82
2023-04-29T07:46:55.985Z,57.40
2023-04-29T07:49:23.494Z,57.49
2023-04-29T07:51:50.447Z,58.05
2023-04-29T07:54:19.432Z,57.96
2023-04-29T07:56:46.618Z,57.78
2023-04-29T07:59:13.916Z,57.71
2023-04-29T08:01:42.426Z,57.54
2023-04-29T08:04:09.656Z,57.69
2023-04-29T08:06:47.552Z,57.69
2023-04-29T08:09:14.656Z,58.17
2023-04-29T08:11:43.301Z,57.84
2023-04-29T08:14:13.064Z,57.81
2023-04-29T08:16:40.279Z,57.81
2023-04-29T08:19:07.241Z,58.33
2023-04-29T08:21:34.866Z,58.32
2023-04-29T08:24:02.063Z,57.82
2023-04-29T08:26:29.355Z,57.69
2023-04-29T08:28:56.333Z,58.21
2023-04-29T08:31:23.416Z,58.06
2023-04-29T08:33:50.609Z,58.38
2023-04-29T08:36:17.712Z,58.08
2023-04-29T08:38:44.731Z,57.58
2023-04-29T08:41:11.946Z,57.61
2023-04-29T08:43:42.254Z,57.65
2023-04-29T08:46:10.927Z,57.96
2023-04-29T08:48:41.915Z,57.62
2023-04-29T08:51:13.888Z,58.01
2023-04-29T08:53:41.013Z,57.72
2023-04-29T08:56:23.092Z,57.89
2023-04-29T08:58:54.815Z,57.85
2023-04-29T09:01:24.256Z,57.32
2023-04-29T09:04:04.303Z,57.70
2023-04-29T09:06:33.331Z,57.55
2023-04-29T09:09:02.962Z,57.45
2023-04-29T09:11:31.166Z,57.59
2023-04-29T09:14:02.485Z,57.30
2023-04-29T09:16:30.384Z,57.09
2023-04-29T09:18:57.642Z,57.25
2023-04-29T09:21:29.564Z,57.71
2023-04-29T09:24:02.212Z,57.69
2023-04-29T09:26:42.941Z,57.80
2023-04-29T09:29:14.432Z,57.53
2023-04-29T09:31:42.166Z,57.59
2023-04-29T09:34:10.006Z,57.32
2023-04-29T09:36:47.146Z,57.48
2023-04-29T09:39:19.700Z,57.16
2023-04-29T09:41:53.151Z,57.37
2023-04-29T09:44:22.684Z,57.38
2023-04-29T09:47:07.523Z,57.67
2023-04-29T09:49:52.722Z,57.64
2023-04-29T09:52:20.904Z,57.57
2023-04-29T09:54:47.971Z,57.38
2023-04-29T09:57:19.303Z,57.05
2023-04-29T09:59:46.194Z,57.42
2023-04-29T10:02:19.371Z,56.97
2023-04-29T10:04:49.317Z,57.17
2023-04-29T10:07:18.391Z,57.30
2023-04-29T10:09:47.764Z,57.37
2023-04-29T10:12:20.829Z,57.23
2023-04-29T10:15:18.509Z,57.10
2023-04-29T10:18:22.132Z,57.05
2023-04-29T10:20:50.609Z,57.68
2023-04-29T10:23:19.992Z,57.77
2023-04-29T10:25:48.172Z,57.89
2023-04-29T10:28:19.415Z,57.71
2023-04-29T10:30:51.992Z,57.52
2023-04-29T10:33:19.681Z,57.47
2023-04-29T10:35:49.564Z,57.33
2023-04-29T10:38:41.734Z,57.79
2023-04-29T10:41:25.439Z,57.37
2023-04-29T10:43:53.377Z,58.02
2023-04-29T10:46:21.150Z,57.79
2023-04-29T10:48:50.572Z,57.73
2023-04-29T10:51:33.183Z,57.80
2023-04-29T10:54:14.046Z,57.53
2023-04-29T10:56:54.520Z,57.74
2023-04-29T10:59:41.980Z,57.91
2023-04-29T11:02:10.967Z,57.79
2023-04-29T11:05:08.946Z,57.56
2023-04-29T11:07:36.179Z,57.21
2023-04-29T11:10:04.066Z,57.68
2023-04-29T11:12:32.232Z,57.03
2023-04-29T11:15:05.128Z,57.56
2023-04-29T11:17:38.230Z,57.07
2023-04-29T11:20:13.656Z,56.92
2023-04-29T11:22:40.732Z,57.44
2023-04-29T11:25:09.563Z,57.14
2023-04-29T11:27:40.670Z,57.04
2023-04-29T11:30:08.816Z,57.26
2023-04-29T11:32:42.791Z,56.99
2023-04-29T11:35:12.756Z,57.04
2023-04-29T11:37:41.402Z,57.14
2023-04-29T11:40:09.833Z,56.89
2023-04-29T11:42:48.056Z,56.84
2023-04-29T11:45:18.000Z,57.07
2023-04-29T11:47:47.236Z,56.77
2023-04-29T11:50:20.338Z,57.46
2023-04-29T11:52:49.338Z,56.88
2023-04-29T11:55:16.502Z,56.89
2023-04-29T11:57:43.777Z,57.35
2023-04-29T12:00:13.403Z,57.48
2023-04-29T12:02:46.284Z,57.19
2023-04-29T12:05:15.927Z,57.24
2023-04-29T12:07:43.432Z,56.76
2023-04-29T12:10:12.213Z,56.94
2023-04-29T12:12:46.682Z,56.61
2023-04-29T12:15:14.475Z,56.72
2023-04-29T12:17:43.328Z,56.36
2023-04-29T12:20:11.762Z,56.02
2023-04-29T12:22:38.905Z,56.02
2023-04-29T12:25:07.707Z,56.16
2023-04-29T12:27:36.178Z,55.81
2023-04-29T12:30:09.482Z,55.89
2023-04-29T12:32:37.279Z,55.52
2023-04-29T12:35:04.901Z,55.45
2023-04-29T12:37:34.183Z,54.84
2023-04-29T12:40:01.128Z,54.24
2023-04-29T12:42:34.188Z,54.61
2023-04-29T12:45:01.265Z,54.06
2023-04-29T12:47:36.953Z,53.37
2023-04-29T12:50:07.514Z,53.23
2023-04-29T12:52:36.544Z,52.62
2023-04-29T12:55:04.752Z,52.91
2023-04-29T12:57:31.996Z,53.25
2023-04-29T12:59:58.941Z,52.51
2023-04-29T13:02:26.420Z,52.65
2023-04-29T13:04:53.747Z,52.86
2023-04-29T13:07:20.951Z,51.96
2023-04-29T13:09:47.878Z,51.76
2023-04-29T13:12:14.851Z,51.75
2023-04-29T13:14:41.746Z,51.99
2023-04-29T13:17:08.913Z,51.48
2023-04-29T13:19:50.492Z,51.68
2023-04-29T13:22:18.704Z,52.03
2023-04-29T13:24:46.732Z,51.93
2023-04-29T13:27:13.854Z,51.91
2023-04-29T13:29:40.979Z,52.01
2023-04-29T13:32:08.861Z,52.04
2023-04-29T13:34:36.098Z,52.02
2023-04-29T13:37:03.253Z,51.45
2023-04-29T13:39:30.537Z,51.01
2023-04-29T13:41:59.231Z,50.44
2023-04-29T13:44:33.270Z,50.27
2023-04-29T13:47:06.924Z,50.02
2023-04-29T13:50:09.763Z,49.44
2023-04-29T13:55:25.700Z,49.27
2023-04-29T13:58:36.212Z,49.55
2023-04-29T14:01:01.304Z,49.95
2023-04-29T14:03:12.836Z,49.71
2023-04-29T14:05:39.994Z,48.65
2023-04-29T14:08:07.286Z,49.03
2023-04-29T14:10:34.568Z,48.26
2023-04-29T14:13:01.524Z,48.36
2023-04-29T14:15:28.936Z,48.23
2023-04-29T14:17:56.918Z,47.72
2023-04-29T14:20:23.902Z,47.64
2023-04-29T14:22:51.148Z,47.59
2023-04-29T14:25:18.531Z,47.37
2023-04-29T14:27:45.726Z,47.63
2023-04-29T14:30:13.167Z,47.66
2023-04-29T14:32:40.304Z,47.64
2023-04-29T14:35:07.963Z,47.79
2023-04-29T14:37:34.921Z,47.77
2023-04-29T14:40:01.935Z,47.78
2023-04-29T14:42:29.096Z,47.76
2023-04-29T14:44:56.253Z,48.01
2023-04-29T14:47:23.456Z,47.98
2023-04-29T14:49:50.459Z,47.98
2023-04-29T14:52:17.454Z,47.93
2023-04-29T14:54:44.690Z,47.65
2023-04-29T14:57:11.966Z,48.29
2023-04-29T14:59:38.885Z,48.07
2023-04-29T15:02:06.053Z,47.68
2023-04-29T15:04:33.036Z,47.91
2023-04-29T15:07:00.045Z,48.15
2023-04-29T15:09:27.232Z,48.31
2023-04-29T15:11:54.366Z,48.32
2023-04-29T15:14:21.685Z,48.27
2023-04-29T15:16:49.017Z,48.63
2023-04-29T15:19:16.303Z,48.77
2023-04-29T15:21:43.308Z,48.95
2023-04-29T15:24:10.452Z,48.83
2023-04-29T15:26:37.394Z,49.00
2023-04-29T15:29:04.339Z,48.76
2023-04-29T15:31:31.289Z,48.70
2023-04-29T15:33:58.454Z,48.57
2023-04-29T15:36:32.559Z,48.54
2023-04-29T15:38:59.525Z,48.38
2023-04-29T15:41:26.975Z,48.00
2023-04-29T15:43:55.018Z,48.27
2023-04-29T15:46:22.055Z,48.07
2023-04-29T15:48:49.196Z,48.19
2023-04-29T15:51:16.142Z,48.19
2023-04-29T15:53:44.501Z,47.98
2023-04-29T15:56:11.525Z,48.36
2023-04-29T15:58:38.410Z,48.19
2023-04-29T16:01:05.654Z,48.39
2023-04-29T16:03:32.744Z,48.85
2023-04-29T16:05:59.807Z,48.27
2023-04-29T16:08:27.024Z,48.77
2023-04-29T16:10:53.999Z,48.56
2023-04-29T16:13:20.974Z,48.54
2023-04-29T16:15:47.928Z,48.20
2023-04-29T16:18:14.833Z,48.36
2023-04-29T16:20:42.116Z,48.47
2023-04-29T16:23:09.171Z,48.27
2023-04-29T16:25:37.131Z,48.29
2023-04-29T16:28:04.235Z,48.49
2023-04-29T16:30:31.279Z,47.93
2023-04-29T16:32:58.226Z,48.36
2023-04-29T16:35:26.569Z,47.80
2023-04-29T16:37:53.862Z,47.71
2023-04-29T16:40:21.739Z,47.55
2023-04-29T16:42:48.836Z,47.38
2023-04-29T16:45:16.188Z,47.08
2023-04-29T16:47:43.586Z,47.38
2023-04-29T16:50:11.159Z,47.33
2023-04-29T16:52:38.041Z,47.15
2023-04-29T16:55:05.490Z,47.43
2023-04-29T16:57:33.585Z,47.24
2023-04-29T17:00:00.757Z,47.28
2023-04-29T17:02:27.854Z,47.61
2023-04-29T17:04:54.972Z,47.47
2023-04-29T17:07:21.999Z,47.40
2023-04-29T17:09:49.303Z,47.18
2023-04-29T17:12:16.527Z,47.40
2023-04-29T17:14:44.282Z,47.69
2023-04-29T17:17:11.209Z,47.58
2023-04-29T17:19:39.212Z,47.89
2023-04-29T17:22:06.650Z,47.82
2023-04-29T17:24:33.634Z,47.69
2023-04-29T17:27:00.581Z,47.53
2023-04-29T17:29:27.696Z,47.56
2023-04-29T17:31:59.436Z,47.91
2023-04-29T17:34:29.658Z,47.87
2023-04-29T17:36:56.649Z,47.60
2023-04-29T17:39:23.586Z,47.68
2023-04-29T17:41:50.742Z,47.97
2023-04-29T17:44:17.776Z,47.53
2023-04-29T17:46:44.881Z,47.80
2023-04-29T17:49:11.769Z,48.01
2023-04-29T17:51:38.936Z,47.55
2023-04-29T17:54:07.705Z,47.17
2023-04-29T17:56:35.441Z,47.82
2023-04-29T17:59:05.142Z,47.61
2023-04-29T18:01:33.250Z,48.02
2023-04-29T18:06:30.219Z,47.51
2023-04-29T18:08:57.376Z,47.79
2023-04-29T18:11:25.085Z,47.61
2023-04-29T18:13:54.100Z,47.84
2023-04-29T18:16:21.188Z,47.60
2023-04-29T18:18:51.556Z,47.65
2023-04-29T18:21:27.631Z,47.86
2023-04-29T18:23:55.994Z,47.34
2023-04-29T18:26:23.499Z,47.67
2023-04-29T18:28:50.706Z,47.94
2023-04-29T18:31:18.956Z,48.05
2023-04-29T18:33:46.507Z,47.94
2023-04-29T18:36:14.310Z,47.86
2023-04-29T18:38:42.191Z,47.80
2023-04-29T18:41:09.224Z,47.71
2023-04-29T18:43:36.598Z,47.92
2023-04-29T18:46:03.868Z,47.90
2023-04-29T18:48:31.355Z,48.23
2023-04-29T18:51:00.227Z,48.16
2023-04-29T18:53:27.197Z,47.96
2023-04-29T18:55:54.613Z,48.32
2023-04-29T18:58:22.022Z,48.22
2023-04-29T19:00:49.124Z,48.09
2023-04-29T19:03:16.411Z,48.08
2023-04-29T19:05:43.684Z,48.36
2023-04-29T19:08:10.688Z,48.38
2023-04-29T19:10:37.695Z,48.24
2023-04-29T19:13:04.757Z,48.36
2023-04-29T19:15:32.092Z,48.54
2023-04-29T19:17:59.159Z,48.47
2023-04-29T19:20:26.678Z,48.54
2023-04-29T19:22:54.008Z,48.36
2023-04-29T19:25:21.709Z,48.56
2023-04-29T19:27:49.160Z,48.50
2023-04-29T19:30:16.587Z,48.51
2023-04-29T19:32:46.100Z,48.64
2023-04-29T19:35:13.317Z,48.36
2023-04-29T19:37:40.529Z,48.32
2023-04-29T19:40:10.875Z,48.30
2023-04-29T19:42:38.987Z,48.40
2023-04-29T19:45:07.792Z,48.32
2023-04-29T19:47:35.164Z,48.69
2023-04-29T19:50:02.501Z,48.83
2023-04-29T19:52:29.837Z,48.66
2023-04-29T19:54:57.286Z,48.67
2023-04-29T19:57:25.167Z,48.38
2023-04-29T19:59:52.722Z,48.36
2023-04-29T20:02:20.031Z,48.23
2023-04-29T20:04:48.148Z,48.36
2023-04-29T20:07:15.117Z,48.47
2023-04-29T20:09:42.073Z,48.71
2023-04-29T20:12:10.183Z,48.82
2023-04-29T20:14:37.206Z,48.81
2023-04-29T20:17:04.090Z,48.72
2023-04-29T20:19:31.345Z,48.47
2023-04-29T20:21:58.361Z,48.64
2023-04-29T20:24:25.370Z,48.31
2023-04-29T20:26:52.286Z,48.68
2023-04-29T20:29:19.332Z,48.38
2023-04-29T20:31:46.304Z,48.24
2023-04-29T20:34:13.519Z,48.57
2023-04-29T20:36:40.678Z,48.26
2023-04-29T20:39:09.244Z,48.67
2023-04-29T20:41:36.285Z,48.34
2023-04-29T20:44:04.356Z,48.52
2023-04-29T20:46:31.623Z,48.74
2023-04-29T20:48:58.615Z,48.77
2023-04-29T20:51:26.524Z,48.78
2023-04-29T20:53:53.674Z,48.77
2023-04-29T20:56:20.592Z,48.23
2023-04-29T20:58:47.570Z,48.63
2023-04-29T21:01:14.758Z,48.60
2023-04-29T21:03:41.775Z,48.88
2023-04-29T21:06:08.810Z,48.94
2023-04-29T21:08:35.978Z,48.99
2023-04-29T21:11:05.129Z,48.90
2023-04-29T21:13:32.244Z,48.91
2023-04-29T21:15:59.173Z,48.70
2023-04-29T21:18:26.390Z,48.63
2023-04-29T21:20:53.557Z,48.50
2023-04-29T21:23:20.564Z,48.56
2023-04-29T21:25:47.542Z,48.52
2023-04-29T21:28:16.778Z,49.01
2023-04-29T21:30:44.051Z,48.46
2023-04-29T21:33:11.137Z,48.89
2023-04-29T21:35:41.875Z,49.07
2023-04-29T21:38:09.356Z,48.82
2023-04-29T21:40:42.169Z,48.47
2023-04-29T21:43:10.722Z,48.67
2023-04-29T21:45:38.307Z,49.07
2023-04-29T21:48:18.089Z,48.78
2023-04-29T21:50:45.599Z,48.61
2023-04-29T21:53:15.375Z,48.90
2023-04-29T21:55:43.903Z,48.91
2023-04-29T21:58:11.265Z,49.15
2023-04-29T22:00:40.604Z,49.21
2023-04-29T22:03:09.122Z,48.86
2023-04-29T22:05:36.812Z,48.58
2023-04-29T22:08:07.112Z,49.08
2023-04-29T22:10:34.606Z,48.96
2023-04-29T22:13:01.510Z,48.77
2023-04-29T22:15:29.481Z,48.70
2023-04-29T22:17:57.832Z,48.58
2023-04-29T22:20:25.447Z,48.89
2023-04-29T22:22:52.649Z,48.70
2023-04-29T22:25:21.511Z,49.08
2023-04-29T22:27:49.192Z,49.15
2023-04-29T22:30:17.630Z,48.64
2023-04-29T22:32:44.921Z,49.31
2023-04-29T22:35:12.177Z,48.79
2023-04-29T22:37:39.101Z,48.97
2023-04-29T22:40:07.584Z,49.26
2023-04-29T22:42:34.549Z,48.89
2023-04-29T22:45:01.642Z,48.86
2023-04-29T22:47:29.025Z,48.90
2023-04-29T22:49:56.282Z,48.76
2023-04-29T22:52:23.393Z,49.39
2023-04-29T22:54:50.565Z,49.25
2023-04-29T22:57:17.428Z,49.10
2023-04-29T22:59:44.508Z,48.77
2023-04-29T23:02:11.898Z,49.11
2023-04-29T23:04:39.017Z,48.93
2023-04-29T23:07:06.000Z,49.39
2023-04-29T23:09:33.529Z,49.13
2023-04-29T23:12:01.064Z,49.35
2023-04-29T23:14:28.041Z,49.00
2023-04-29T23:16:55.075Z,49.26
2023-04-29T23:19:22.912Z,49.32
2023-04-29T23:21:49.850Z,48.98
2023-04-29T23:24:16.859Z,49.47
2023-04-29T23:26:44.216Z,49.34
2023-04-29T23:29:11.224Z,49.17
2023-04-29T23:31:38.096Z,49.38
2023-04-29T23:34:05.146Z,49.29
2023-04-29T23:36:32.512Z,49.21
2023-04-29T23:38:59.425Z,49.41
2023-04-29T23:41:26.464Z,49.32
2023-04-29T23:43:54.716Z,48.98
2023-04-29T23:46:21.631Z,49.24
2023-04-29T23:48:48.568Z,49.50
2023-04-29T23:51:15.661Z,49.38
2023-04-29T23:53:42.653Z,49.16
2023-04-29T23:56:09.766Z,49.06
2023-04-29T23:58:37.167Z,49.38
